Time;durP1;ratioP1;P1;durP2;ratioP2;P2;SDS_P1;SDS_P2;PMS_P1;PMS_P2;Temp;Humidity;BMP_temperature;BMP_pressure;BME280_temperature;BME280_humidity;BME280_pressure;Samples;Min_cycle;Max_cycle;Signal;HPM_P1;HPM_P2
2021/12/21 00:00:01;;;;;;;4.25;1.60;;;;;;;-2.25;87.77;101668.34;5151565;27;20050;-56
2021/12/21 00:02:28;;;;;;;7.13;2.20;;;;;;;-2.25;88.33;101665.81;5149451;27;20468;-54
2021/12/21 00:04:55;;;;;;;3.45;1.58;;;;;;;-2.25;88.41;101666.69;5143879;27;20498;-52
2021/12/21 00:07:22;;;;;;;5.82;2.08;;;;;;;-2.25;87.72;101665.81;5147515;27;20047;-54
2021/12/21 00:09:49;;;;;;;7.07;2.10;;;;;;;-2.27;87.11;101675.88;5150050;27;20106;-53
2021/12/21 00:12:18;;;;;;;16.65;5.93;;;;;;;-2.27;87.11;101683.50;5139668;27;20390;-54
2021/12/21 00:14:57;;;;;;;7.35;2.60;;;;;;;-2.29;87.10;101689.28;5145109;27;22083;-56
2021/12/21 00:17:46;;;;;;;12.05;3.25;;;;;;;-2.27;87.94;101687.69;5145781;27;20051;-53
2021/12/21 00:20:27;;;;;;;11.32;3.35;;;;;;;-2.24;86.94;101675.19;5143984;27;20085;-54
2021/12/21 00:25:37;;;;;;;6.47;2.33;;;;;;;-2.21;86.75;101695.69;5135519;27;20379;-56
2021/12/21 00:28:05;;;;;;;9.85;2.97;;;;;;;-2.19;86.42;101693.22;5151689;27;20039;-54
2021/12/21 00:30:33;;;;;;;25.33;9.50;;;;;;;-2.17;87.32;101695.06;5148333;27;20045;-54
2021/12/21 00:33:01;;;;;;;9.50;3.83;;;;;;;-2.16;85.68;101691.75;5147319;27;20061;-53
2021/12/21 00:35:28;;;;;;;12.55;3.20;;;;;;;-2.14;86.64;101700.31;5149436;27;20506;-55
2021/12/21 00:37:56;;;;;;;12.52;4.05;;;;;;;-2.10;85.86;101697.16;5149070;27;20047;-54
2021/12/21 00:40:23;;;;;;;4.63;1.60;;;;;;;-2.10;83.76;101696.28;5146857;27;20073;-51
2021/12/21 00:42:51;;;;;;;4.53;0.98;;;;;;;-2.10;84.24;101703.91;5151059;27;20408;-53
2021/12/21 00:45:18;;;;;;;2.17;0.50;;;;;;;-2.10;86.16;101712.41;5146424;27;20042;-53
2021/12/21 00:47:48;;;;;;;2.70;0.70;;;;;;;-2.09;86.36;101709.09;5148199;27;20051;-51
2021/12/21 00:50:18;;;;;;;1.98;0.57;;;;;;;-2.09;86.45;101709.09;5147517;27;20050;-53
2021/12/21 00:52:47;;;;;;;0.88;0.38;;;;;;;-2.10;86.58;101716.63;5147417;27;20383;-56
2021/12/21 00:55:14;;;;;;;2.58;0.47;;;;;;;-2.06;86.60;101718.56;5152016;27;20050;-56
2021/12/21 00:57:42;;;;;;;2.83;0.60;;;;;;;-2.18;87.93;101723.78;5152308;27;20129;-54
2021/12/21 01:00:11;;;;;;;4.95;0.95;;;;;;;-2.21;90.43;101726.16;5143340;27;20034;-54
2021/12/21 01:02:40;;;;;;;1.80;0.82;;;;;;;-2.23;90.68;101730.28;5147661;27;20051;-53
2021/12/21 01:05:15;;;;;;;2.92;1.15;;;;;;;-2.26;91.63;101730.09;5144839;27;20046;-56
2021/12/21 01:07:48;;;;;;;5.00;0.77;;;;;;;-2.32;91.29;101740.78;5153134;27;20441;-53
2021/12/21 01:10:47;;;;;;;3.35;1.05;;;;;;;-2.33;91.05;101739.00;5150900;27;20817;-53
2021/12/21 01:13:27;;;;;;;1.77;0.77;;;;;;;-2.35;90.79;101745.66;5152392;27;20046;-53
2021/12/21 01:16:16;;;;;;;3.90;0.80;;;;;;;-2.35;90.52;101755.81;5149967;27;20056;-53
2021/12/21 01:18:59;;;;;;;2.50;0.70;;;;;;;-2.41;90.33;101746.97;5142768;27;20051;-52
2021/12/21 01:21:30;;;;;;;1.70;0.70;;;;;;;-2.41;90.10;101744.44;5144152;27;20055;-52
2021/12/21 01:26:52;;;;;;;1.70;0.50;;;;;;;-2.43;89.97;101740.91;5129928;27;20043;-51
2021/12/21 01:29:27;;;;;;;1.98;0.73;;;;;;;-2.45;89.39;101737.41;5150159;27;20054;-52
2021/12/21 01:32:01;;;;;;;2.35;0.73;;;;;;;-2.42;89.63;101737.59;5149218;27;20095;-52
2021/12/21 01:34:40;;;;;;;1.20;1.00;;;;;;;-2.38;90.60;101740.41;5154388;27;20129;-53
2021/12/21 01:37:16;;;;;;;7.90;2.63;;;;;;;-2.33;90.44;101748.28;5145948;27;20042;-54
2021/12/21 01:39:59;;;;;;;3.78;1.73;;;;;;;-2.30;90.58;101738.31;5140302;27;20100;-53
2021/12/21 01:42:39;;;;;;;3.97;1.13;;;;;;;-2.25;90.46;101744.53;5144961;27;20055;-52
2021/12/21 01:50:36;;;;;;;2.92;2.00;;;;;;;-2.15;89.50;101741.75;5146648;27;20091;-55
2021/12/21 01:53:04;;;;;;;3.88;2.22;;;;;;;-2.11;90.10;101741.16;5146677;27;20047;-55
2021/12/21 01:55:33;;;;;;;4.25;1.63;;;;;;;-2.07;89.71;101739.69;5147613;27;20051;-52
2021/12/21 01:58:00;;;;;;;3.50;1.40;;;;;;;-2.06;88.59;101742.31;5145523;27;20399;-52
2021/12/21 02:00:29;;;;;;;3.95;1.35;;;;;;;-2.01;89.86;101740.91;5141616;27;20059;-55
2021/12/21 02:02:56;;;;;;;3.25;1.63;;;;;;;-1.95;90.46;101741.28;5146132;27;20510;-52
2021/12/21 02:05:24;;;;;;;5.13;1.35;;;;;;;-1.93;88.92;101741.34;5138582;27;20039;-53
2021/12/21 02:07:51;;;;;;;4.70;1.52;;;;;;;-1.94;88.09;101745.56;5142818;27;20046;-51
2021/12/21 02:10:18;;;;;;;5.40;1.25;;;;;;;-1.94;87.70;101748.09;5144062;27;20431;-55
2021/12/21 02:12:47;;;;;;;4.07;1.20;;;;;;;-1.93;87.75;101734.63;5141703;27;20403;-55
2021/12/21 02:15:14;;;;;;;5.18;1.80;;;;;;;-1.87;88.21;101735.75;5145273;27;20051;-54
2021/12/21 02:20:40;;;;;;;3.97;1.52;;;;;;;-1.81;87.50;101731.91;5143949;27;20046;-53
2021/12/21 02:23:11;;;;;;;4.72;1.83;;;;;;;-1.80;86.95;101740.41;5141270;27;20053;-55
2021/12/21 02:25:57;;;;;;;6.20;1.33;;;;;;;-1.80;86.78;101732.78;5143548;27;20505;-53
2021/12/21 02:31:06;;;;;;;6.75;1.73;;;;;;;-1.83;84.98;101732.59;5143939;27;20158;-54
2021/12/21 02:33:34;;;;;;;3.20;1.30;;;;;;;-1.82;84.49;101740.31;5143304;27;20054;-54
2021/12/21 02:36:04;;;;;;;5.65;1.38;;;;;;;-1.84;81.99;101736.81;5145075;27;20456;-51
2021/12/21 02:38:32;;;;;;;3.78;1.05;;;;;;;-1.87;82.23;101745.91;5140878;27;20490;-55
2021/12/21 02:40:59;;;;;;;2.33;1.23;;;;;;;-1.89;80.26;101738.22;5141747;27;20038;-54
2021/12/21 02:43:28;;;;;;;4.18;1.25;;;;;;;-1.89;80.62;101742.41;5145768;27;20043;-55
2021/12/21 02:45:56;;;;;;;3.92;1.05;;;;;;;-1.85;82.86;101739.25;5144324;27;20049;-55
2021/12/21 02:48:23;;;;;;;4.25;1.30;;;;;;;-1.83;82.33;101747.84;5140995;27;20042;-54
2021/12/21 02:50:50;;;;;;;3.08;0.80;;;;;;;-1.83;81.11;101747.84;5143375;27;20659;-54
2021/12/21 02:53:19;;;;;;;4.80;1.23;;;;;;;-1.86;80.69;101763.78;5143303;27;20470;-56
2021/12/21 02:55:46;;;;;;;2.75;1.00;;;;;;;-1.89;82.16;101767.81;5146329;27;20074;-52
2021/12/21 02:58:13;;;;;;;3.58;1.25;;;;;;;-1.93;82.85;101766.78;5148120;27;20049;-53
2021/12/21 03:00:40;;;;;;;4.57;1.52;;;;;;;-2.00;84.58;101774.81;5145590;27;20099;-53
2021/12/21 03:03:12;;;;;;;3.83;1.70;;;;;;;-2.12;85.56;101774.97;5147429;27;20063;-54
2021/12/21 03:05:44;;;;;;;3.45;1.23;;;;;;;-2.28;86.54;101782.47;5143802;27;20061;-55
2021/12/21 03:08:16;;;;;;;2.47;1.45;;;;;;;-2.34;87.42;101777.00;5143733;27;20039;-54
2021/12/21 03:11:00;;;;;;;3.53;1.20;;;;;;;-2.46;87.11;101781.34;5146347;27;20034;-53
2021/12/21 03:16:12;;;;;;;13.40;4.78;;;;;;;-2.67;88.43;101781.78;5145941;27;20495;-55
2021/12/21 03:18:39;;;;;;;11.63;4.18;;;;;;;-2.80;88.53;101783.47;5147577;27;20046;-54
2021/12/21 03:21:06;;;;;;;23.13;8.95;;;;;;;-2.91;89.32;101790.44;5146553;27;20046;-55
2021/12/21 03:23:33;;;;;;;10.35;4.75;;;;;;;-2.98;89.07;101793.38;5144930;27;20066;-51
2021/12/21 03:26:02;;;;;;;17.38;7.25;;;;;;;-3.00;88.84;101794.94;5149340;27;20053;-54
2021/12/21 03:28:29;;;;;;;16.98;6.75;;;;;;;-3.01;89.78;101790.63;5142361;27;20051;-54
2021/12/21 03:30:56;;;;;;;76.60;26.65;;;;;;;-3.03;89.00;101784.59;5139258;27;20092;-55
2021/12/21 03:33:23;;;;;;;27.60;9.95;;;;;;;-3.08;89.39;101781.78;5146316;27;20057;-54
2021/12/21 03:35:50;;;;;;;44.30;17.88;;;;;;;-3.07;89.85;101790.25;5145515;27;20042;-55
2021/12/21 03:38:18;;;;;;;23.80;10.00;;;;;;;-3.11;89.19;101783.22;5143087;27;20116;-55
2021/12/21 03:40:45;;;;;;;21.75;9.13;;;;;;;-3.15;89.32;101778.72;5147241;27;20047;-54
2021/12/21 03:43:14;;;;;;;14.45;5.60;;;;;;;-3.19;89.49;101778.53;5149332;27;20386;-54
2021/12/21 03:45:50;;;;;;;61.67;26.85;;;;;;;-3.23;89.78;101781.66;5143036;27;20416;-54
2021/12/21 03:48:17;;;;;;;56.90;23.60;;;;;;;-3.28;89.07;101783.03;5147570;27;20062;-55
2021/12/21 03:50:44;;;;;;;50.10;23.20;;;;;;;-3.29;89.01;101778.72;5146196;27;20046;-53
2021/12/21 03:53:12;;;;;;;34.67;15.93;;;;;;;-3.34;89.38;101775.03;5139010;27;20480;-55
2021/12/21 03:55:39;;;;;;;42.47;21.40;;;;;;;-3.39;89.35;101773.84;5137994;27;20045;-55
2021/12/21 03:58:06;;;;;;;33.25;15.35;;;;;;;-3.46;89.33;101771.72;5137035;27;20539;-54
2021/12/21 04:00:35;;;;;;;26.27;13.15;;;;;;;-3.53;89.68;101772.09;5136464;27;20502;-53
2021/12/21 04:03:02;;;;;;;37.13;16.95;;;;;;;-3.53;89.89;101777.16;5134391;27;20122;-53
2021/12/21 04:05:30;;;;;;;14.75;7.07;;;;;;;-3.52;89.96;101782.34;5133150;27;20046;-53
2021/12/21 04:07:57;;;;;;;12.75;5.57;;;;;;;-3.52;89.68;101774.72;5139151;27;20047;-55
2021/12/21 04:10:24;;;;;;;12.07;5.75;;;;;;;-3.49;90.21;101776.59;5133094;27;20043;-55
2021/12/21 04:12:51;;;;;;;47.90;22.00;;;;;;;-3.55;89.36;101776.19;5140655;27;20046;-54
2021/12/21 04:15:23;;;;;;;9.18;4.40;;;;;;;-3.61;89.36;101775.78;5136671;27;20054;-55
2021/12/21 04:17:51;;;;;;;8.45;3.83;;;;;;;-3.72;89.87;101776.72;5134653;27;20054;-56
2021/12/21 04:20:19;;;;;;;12.77;5.70;;;;;;;-3.78;89.82;101782.28;5137453;27;20051;-54
2021/12/21 04:22:46;;;;;;;24.02;11.50;;;;;;;-3.82;90.07;101778.66;5132503;27;20038;-56
2021/12/21 04:25:13;;;;;;;20.35;10.10;;;;;;;-3.82;90.63;101772.72;5133407;27;20054;-54
2021/12/21 04:27:40;;;;;;;23.10;9.82;;;;;;;-3.83;90.96;101779.44;5132739;27;20047;-53
2021/12/21 04:30:09;;;;;;;24.15;12.68;;;;;;;-3.85;90.29;101773.38;5133937;27;20051;-54
2021/12/21 04:32:36;;;;;;;5.68;3.13;;;;;;;-3.87;90.07;101777.47;5136394;27;20451;-55
2021/12/21 04:35:06;;;;;;;22.67;9.95;;;;;;;-3.92;89.54;101773.75;5137553;27;20551;-56
2021/12/21 04:37:40;;;;;;;15.15;7.80;;;;;;;-3.95;89.65;101773.56;5138365;27;20116;-54
2021/12/21 04:40:14;;;;;;;16.80;8.73;;;;;;;-3.97;89.46;101779.31;5131177;27;20048;-55
2021/12/21 04:42:41;;;;;;;23.98;13.43;;;;;;;-3.99;89.60;101780.84;5135065;27;20043;-56
2021/12/21 04:45:09;;;;;;;14.18;7.25;;;;;;;-4.00;89.76;101785.03;5137589;27;20060;-55
2021/12/21 04:47:36;;;;;;;24.08;12.57;;;;;;;-4.03;89.92;101782.31;5136608;27;20049;-54
2021/12/21 04:50:06;;;;;;;16.10;9.35;;;;;;;-4.05;90.10;101785.50;5135338;27;20043;-56
2021/12/21 04:52:33;;;;;;;14.60;6.68;;;;;;;-4.06;89.98;101784.63;5143930;27;20175;-53
2021/12/21 04:55:01;;;;;;;14.23;6.35;;;;;;;-4.03;90.12;101787.38;5138419;27;20418;-54
2021/12/21 04:57:28;;;;;;;8.88;4.28;;;;;;;-4.00;90.35;101787.59;5143481;27;20042;-58
2021/12/21 04:59:55;;;;;;;26.27;14.80;;;;;;;-3.98;90.09;101787.69;5141943;27;20138;-54
2021/12/21 05:02:23;;;;;;;25.00;12.50;;;;;;;-3.96;90.46;101791.19;5137271;27;20034;-55
2021/12/21 05:04:50;;;;;;;18.15;7.80;;;;;;;-3.95;90.28;101788.75;5141461;27;20042;-56
2021/12/21 05:07:23;;;;;;;19.00;8.55;;;;;;;-3.89;90.75;101788.28;5137569;27;20043;-56
2021/12/21 05:09:56;;;;;;;14.32;7.20;;;;;;;-3.87;90.91;101789.25;5135544;27;20053;-55
2021/12/21 05:12:24;;;;;;;11.93;4.55;;;;;;;-3.88;90.37;101785.84;5133912;27;20333;-54
2021/12/21 05:14:51;;;;;;;12.88;4.82;;;;;;;-3.87;90.41;101781.66;5139314;27;20047;-55
2021/12/21 05:17:19;;;;;;;16.40;6.07;;;;;;;-3.86;90.28;101783.41;5140762;27;20050;-56
2021/12/21 05:19:46;;;;;;;15.27;6.80;;;;;;;-3.88;90.52;101770.66;5144622;27;20050;-55
2021/12/21 05:22:15;;;;;;;10.48;4.45;;;;;;;-3.88;90.74;101768.13;5142149;27;20047;-55
2021/12/21 05:24:44;;;;;;;13.10;3.95;;;;;;;-3.90;90.25;101762.06;5138779;27;20126;-55
2021/12/21 05:27:11;;;;;;;12.80;4.32;;;;;;;-3.92;90.38;101772.88;5138338;27;20471;-55
2021/12/21 05:29:39;;;;;;;12.90;4.88;;;;;;;-3.94;89.75;101769.38;5138357;27;20052;-55
2021/12/21 05:32:07;;;;;;;11.25;3.83;;;;;;;-3.98;89.68;101769.94;5144871;27;20042;-54
2021/12/21 05:34:34;;;;;;;9.73;3.95;;;;;;;-4.03;90.04;101769.66;5139741;27;20715;-55
2021/12/21 05:37:05;;;;;;;13.07;6.05;;;;;;;-4.06;90.20;101769.44;5143450;27;20050;-56
2021/12/21 05:39:40;;;;;;;12.75;4.47;;;;;;;-4.06;90.85;101777.03;5136735;27;20377;-56
2021/12/21 05:42:10;;;;;;;6.70;3.13;;;;;;;-4.07;90.56;101775.28;5144604;27;20043;-55
2021/12/21 05:44:37;;;;;;;6.32;2.78;;;;;;;-4.05;90.80;101783.88;5143442;27;20503;-55
2021/12/21 05:47:05;;;;;;;7.70;2.60;;;;;;;-4.02;91.03;101776.47;5144779;27;20747;-55
2021/12/21 05:49:34;;;;;;;10.27;3.50;;;;;;;-3.97;91.64;101780.19;5137324;27;20046;-54
2021/12/21 05:52:01;;;;;;;9.75;3.72;;;;;;;-3.90;91.78;101787.41;5124609;27;20044;-56
2021/12/21 05:54:28;;;;;;;7.38;3.33;;;;;;;-3.83;91.79;101783.63;5106976;28;20058;-55
2021/12/21 05:56:55;;;;;;;21.90;7.65;;;;;;;-3.84;90.92;101792.00;5103477;28;20040;-54
2021/12/21 05:59:24;;;;;;;17.15;6.03;;;;;;;-3.86;90.35;101788.50;5106051;28;20040;-55
2021/12/21 06:01:51;;;;;;;14.35;4.90;;;;;;;-3.89;90.71;101784.09;5106198;28;20050;-56
2021/12/21 06:04:18;;;;;;;8.00;3.10;;;;;;;-3.89;90.71;101771.44;5102800;28;20044;-54
2021/12/21 06:06:45;;;;;;;6.13;2.88;;;;;;;-3.89;90.81;101762.97;5107104;28;20063;-54
2021/12/21 06:09:13;;;;;;;6.38;2.50;;;;;;;-3.87;90.93;101762.28;5106710;28;20046;-56
2021/12/21 06:11:46;;;;;;;5.60;2.55;;;;;;;-3.81;91.19;101762.69;5107900;28;20582;-55
2021/12/21 06:14:23;;;;;;;7.38;3.13;;;;;;;-3.75;91.41;101767.25;5106229;28;20052;-56
2021/12/21 06:25:36;;;;;;;8.98;2.75;;;;;;;-3.90;89.11;101764.59;5101143;28;20074;-56
2021/12/21 06:28:04;;;;;;;8.40;2.90;;;;;;;-3.91;89.66;101765.38;5105267;28;20392;-54
2021/12/21 06:30:32;;;;;;;9.35;3.42;;;;;;;-3.93;89.85;101772.00;5105431;28;20043;-56
2021/12/21 06:33:01;;;;;;;29.38;9.50;;;;;;;-3.94;89.74;101766.84;5101802;28;20040;-57
2021/12/21 06:35:28;;;;;;;41.67;13.75;;;;;;;-3.97;89.50;101770.06;5104032;28;20043;-55
2021/12/21 06:37:56;;;;;;;46.72;15.27;;;;;;;-3.98;89.41;101768.28;5105059;28;20134;-56
2021/12/21 06:40:25;;;;;;;27.55;10.13;;;;;;;-4.00;88.96;101764.78;5105410;28;20046;-57
2021/12/21 06:42:53;;;;;;;35.00;11.10;;;;;;;-4.02;88.87;101766.34;5104270;28;20438;-55
2021/12/21 06:45:31;;;;;;;33.78;11.90;;;;;;;-4.02;89.28;101763.81;5105575;28;20051;-56
2021/12/21 06:53:29;;;;;;;19.30;6.30;;;;;;;-4.12;88.93;101763.97;5128747;27;20535;-55
2021/12/21 06:55:57;;;;;;;15.68;5.55;;;;;;;-4.09;89.52;101759.13;5120352;27;20051;-56
2021/12/21 06:58:24;;;;;;;12.05;4.50;;;;;;;-4.06;89.62;101756.78;5125195;27;20043;-56
2021/12/21 07:00:53;;;;;;;15.35;4.30;;;;;;;-3.99;89.68;101750.47;5125571;27;20062;-55
2021/12/21 07:03:22;;;;;;;7.22;3.33;;;;;;;-3.98;89.49;101748.03;5124709;27;20459;-55
2021/12/21 07:05:51;;;;;;;9.43;2.60;;;;;;;-4.00;89.00;101744.53;5125451;27;20051;-55
2021/12/21 07:08:23;;;;;;;4.80;1.98;;;;;;;-3.98;88.70;101747.16;5125486;27;20431;-56
2021/12/21 07:10:56;;;;;;;8.00;2.35;;;;;;;-3.97;88.81;101748.91;5123220;27;20046;-56
2021/12/21 07:18:55;;;;;;;4.20;2.15;;;;;;;-3.92;88.82;101758.56;5125586;27;20069;-54
2021/12/21 07:21:22;;;;;;;5.57;2.20;;;;;;;-3.89;88.83;101757.88;5123524;27;20107;-55
2021/12/21 07:23:51;;;;;;;7.95;3.45;;;;;;;-3.85;89.23;101758.19;5126335;27;20058;-55
2021/12/21 07:26:18;;;;;;;8.80;3.38;;;;;;;-3.84;89.23;101752.34;5128218;27;20130;-55
2021/12/21 07:28:45;;;;;;;7.30;3.25;;;;;;;-3.80;89.29;101753.41;5124389;27;20039;-56
2021/12/21 07:31:12;;;;;;;6.60;2.97;;;;;;;-3.79;89.50;101752.66;5123695;27;20048;-56
2021/12/21 07:33:40;;;;;;;9.25;3.70;;;;;;;-3.79;89.37;101754.28;5122532;27;20404;-54
2021/12/21 07:36:08;;;;;;;10.82;3.58;;;;;;;-3.72;89.67;101756.44;5127233;27;20046;-56
2021/12/21 07:38:35;;;;;;;8.63;3.92;;;;;;;-3.67;89.32;101757.63;5125081;27;20054;-56
2021/12/21 07:41:03;;;;;;;8.88;4.28;;;;;;;-3.61;89.73;101753.88;5120017;27;20455;-55
2021/12/21 07:43:31;;;;;;;13.95;4.75;;;;;;;-3.53;89.67;101764.50;5120721;27;20479;-56
2021/12/21 07:45:58;;;;;;;16.27;4.90;;;;;;;-3.48;89.55;101765.66;5122653;27;20396;-54
2021/12/21 07:48:25;;;;;;;14.60;4.00;;;;;;;-3.41;89.71;101765.28;5121042;27;20043;-55
2021/12/21 07:50:54;;;;;;;10.38;5.35;;;;;;;-3.35;89.35;101770.72;5116842;27;20043;-56
2021/12/21 07:53:23;;;;;;;7.95;3.58;;;;;;;-3.32;88.64;101770.94;5148654;27;20471;-54
2021/12/21 07:55:50;;;;;;;9.50;4.03;;;;;;;-3.35;88.09;101763.13;5148387;27;20042;-56
2021/12/21 07:58:18;;;;;;;12.20;5.55;;;;;;;-3.30;87.88;101768.50;5144502;27;20058;-56
2021/12/21 08:00:46;;;;;;;10.88;4.70;;;;;;;-3.29;88.14;101765.16;5142824;27;20080;-54
2021/12/21 08:03:15;;;;;;;11.43;4.63;;;;;;;-3.23;88.80;101765.56;5147384;27;20074;-56
2021/12/21 08:05:45;;;;;;;10.00;4.65;;;;;;;-3.18;88.03;101777.75;5144103;27;20118;-55
2021/12/21 08:08:17;;;;;;;10.27;4.75;;;;;;;-3.13;87.85;101772.97;5137910;27;20050;-55
2021/12/21 08:10:51;;;;;;;16.27;5.97;;;;;;;-3.04;88.25;101770.16;5135627;27;20063;-53
2021/12/21 08:13:19;;;;;;;13.98;5.30;;;;;;;-2.97;87.54;101774.81;5140237;27;20121;-55
2021/12/21 08:15:47;;;;;;;15.43;5.45;;;;;;;-2.92;87.97;101770.91;5144494;27;20050;-57
2021/12/21 08:18:14;;;;;;;12.10;4.80;;;;;;;-2.86;87.99;101763.69;5150811;27;20058;-57
2021/12/21 08:20:43;;;;;;;13.75;5.40;;;;;;;-2.82;87.16;101765.63;5140226;27;20046;-56
2021/12/21 08:23:10;;;;;;;13.20;5.00;;;;;;;-2.79;86.88;101765.81;5145715;27;20107;-57
2021/12/21 08:25:38;;;;;;;14.63;5.70;;;;;;;-2.76;86.35;101768.53;5148132;27;20422;-56
2021/12/21 08:28:07;;;;;;;14.75;5.70;;;;;;;-2.77;86.12;101759.16;5142516;27;20051;-54
2021/12/21 08:30:35;;;;;;;14.27;5.70;;;;;;;-2.79;85.66;101770.88;5145788;27;20042;-56
2021/12/21 08:33:03;;;;;;;15.38;5.57;;;;;;;-2.83;85.40;101768.94;5146944;27;20042;-56
2021/12/21 08:35:32;;;;;;;13.30;5.50;;;;;;;-2.83;85.40;101780.75;5141863;27;20046;-56
2021/12/21 08:38:04;;;;;;;12.32;5.53;;;;;;;-2.82;85.13;101770.69;5141086;27;20050;-57
2021/12/21 08:40:38;;;;;;;15.50;6.15;;;;;;;-2.86;85.46;101772.16;5148041;27;20486;-57
2021/12/21 08:43:08;;;;;;;15.10;5.45;;;;;;;-2.84;85.24;101757.03;5150611;27;20043;-55
2021/12/21 08:45:37;;;;;;;16.48;6.13;;;;;;;-2.86;85.14;101758.59;5147647;27;20158;-53
2021/12/21 08:48:05;;;;;;;15.82;7.60;;;;;;;-2.89;85.24;101753.34;5137180;27;20044;-55
2021/12/21 08:50:33;;;;;;;18.25;6.38;;;;;;;-2.87;85.23;101756.84;5148406;27;20095;-57
2021/12/21 08:53:00;;;;;;;15.15;6.85;;;;;;;-2.82;85.45;101765.63;5142030;27;20054;-57
2021/12/21 08:55:29;;;;;;;15.18;5.88;;;;;;;-2.77;85.54;101769.31;5140813;27;20054;-57
2021/12/21 08:57:56;;;;;;;13.82;5.43;;;;;;;-2.65;86.14;101779.34;5145403;27;20046;-56
2021/12/21 09:02:51;;;;;;;14.73;6.75;;;;;;;-2.44;85.89;101774.72;5084415;27;20051;-59
2021/12/21 09:05:24;;;;;;;12.70;6.00;;;;;;;-2.31;85.58;101777.19;5132457;27;20647;-60
2021/12/21 09:07:52;;;;;;;14.82;6.47;;;;;;;-2.23;85.12;101776.00;5126242;27;20244;-58
2021/12/21 09:10:21;;;;;;;12.75;5.20;;;;;;;-2.17;83.86;101776.34;5113498;27;20583;-59
2021/12/21 09:12:48;;;;;;;15.98;6.60;;;;;;;-2.15;84.06;101767.16;5115239;27;20481;-59
2021/12/21 09:15:17;;;;;;;12.90;5.30;;;;;;;-2.09;84.20;101770.06;5122879;27;20039;-60
2021/12/21 09:17:44;;;;;;;13.52;6.15;;;;;;;-2.04;83.66;101768.69;5123516;27;20134;-57
2021/12/21 09:20:15;;;;;;;15.75;5.72;;;;;;;-2.01;83.45;101784.13;5126462;27;20060;-56
2021/12/21 09:22:43;;;;;;;11.18;5.03;;;;;;;-1.96;84.16;101787.81;5121263;27;20058;-58
2021/12/21 09:25:11;;;;;;;11.85;5.97;;;;;;;-1.92;83.67;101784.66;5136615;27;20047;-55
2021/12/21 09:27:39;;;;;;;14.20;4.95;;;;;;;-1.84;83.37;101781.69;5140335;27;20050;-55
2021/12/21 09:30:09;;;;;;;14.77;5.95;;;;;;;-1.73;83.48;101788.25;5142006;27;20072;-57
2021/12/21 09:32:36;;;;;;;16.75;6.60;;;;;;;-1.62;83.57;101788.06;5137727;27;20833;-56
2021/12/21 09:35:04;;;;;;;14.63;5.03;;;;;;;-1.49;83.68;101791.34;5138685;27;20439;-57
2021/12/21 09:37:32;;;;;;;14.07;5.38;;;;;;;-1.43;82.87;101787.47;5143982;27;20129;-55
2021/12/21 09:40:00;;;;;;;11.60;5.70;;;;;;;-1.37;82.45;101786.94;5143355;27;20054;-56
2021/12/21 09:42:30;;;;;;;12.07;5.53;;;;;;;-1.39;82.23;101791.94;5141264;27;20035;-55
2021/12/21 09:44:58;;;;;;;10.23;4.40;;;;;;;-1.36;81.81;101784.50;5143898;27;20415;-56
2021/12/21 09:47:26;;;;;;;13.05;5.45;;;;;;;-1.30;82.58;101783.97;5145287;27;20531;-57
2021/12/21 09:49:54;;;;;;;12.57;5.00;;;;;;;-1.29;81.55;101778.94;5147448;27;20170;-56
2021/12/21 09:52:23;;;;;;;17.98;5.35;;;;;;;-1.22;81.63;101782.72;5122312;27;20075;-56
2021/12/21 09:54:52;;;;;;;18.70;6.65;;;;;;;-1.17;81.64;101788.06;5107873;27;20048;-56
2021/12/21 09:57:20;;;;;;;16.95;7.05;;;;;;;-1.13;81.86;101784.88;5097436;27;20059;-55
2021/12/21 09:59:48;;;;;;;13.93;6.22;;;;;;;-1.05;82.15;101786.19;5104460;27;20051;-57
2021/12/21 10:02:18;;;;;;;16.20;6.68;;;;;;;-1.00;81.57;101782.25;5103737;27;20426;-57
2021/12/21 10:04:47;;;;;;;15.88;7.18;;;;;;;-0.95;82.00;101780.84;5095707;27;20040;-58
2021/12/21 10:07:15;;;;;;;19.27;7.55;;;;;;;-0.95;81.31;101783.38;5101068;27;20139;-54
2021/12/21 10:09:43;;;;;;;21.05;8.32;;;;;;;-0.96;80.67;101784.16;5101561;27;20169;-57
2021/12/21 10:12:15;;;;;;;18.75;8.00;;;;;;;-0.93;81.86;101779.25;5105355;27;20048;-55
2021/12/21 10:14:42;;;;;;;25.70;8.93;;;;;;;-0.87;81.50;101781.25;5098992;27;20112;-53
2021/12/21 10:17:11;;;;;;;23.48;8.88;;;;;;;-0.87;80.99;101777.03;5096080;27;20058;-57
2021/12/21 10:19:40;;;;;;;19.75;8.38;;;;;;;-0.86;80.39;101786.41;5109014;27;20165;-57
2021/12/21 10:22:12;;;;;;;24.55;9.43;;;;;;;-0.84;80.94;101782.28;5100042;27;20044;-63
2021/12/21 10:24:46;;;;;;;35.33;9.75;;;;;;;-0.84;80.39;101782.28;5104395;27;20432;-58
2021/12/21 10:27:18;;;;;;;24.90;8.82;;;;;;;-0.83;80.93;101784.03;5104018;27;20358;-59
2021/12/21 10:29:48;;;;;;;23.83;9.30;;;;;;;-0.79;80.67;101780.88;5101393;27;20043;-49
2021/12/21 10:32:20;;;;;;;21.15;8.25;;;;;;;-0.73;80.76;101786.28;5098951;27;20051;-51
2021/12/21 10:34:56;;;;;;;22.13;8.68;;;;;;;-0.68;80.57;101782.31;5099106;27;20547;-51
2021/12/21 10:37:27;;;;;;;21.45;10.50;;;;;;;-0.58;81.03;101782.81;5105866;27;20769;-49
2021/12/21 10:40:23;;;;;;;17.30;7.78;;;;;;;-0.53;79.75;101777.16;5097455;27;20048;-50
2021/12/21 10:42:55;;;;;;;31.33;9.60;;;;;;;-0.44;80.60;101779.34;5098481;27;20067;-51
2021/12/21 10:45:28;;;;;;;17.48;6.63;;;;;;;-0.40;79.26;101777.03;5100622;28;20105;-53
2021/12/21 10:47:56;;;;;;;8.57;4.22;;;;;;;-0.40;77.64;101769.38;5102541;28;20472;-50
2021/12/21 10:50:24;;;;;;;11.57;5.15;;;;;;;-0.37;78.23;101773.75;5098203;28;20070;-55
2021/12/21 10:52:53;;;;;;;12.80;5.00;;;;;;;-0.36;78.59;101767.88;5102409;27;20047;-51
2021/12/21 10:55:30;;;;;;;9.35;4.53;;;;;;;-0.36;77.81;101772.97;5116228;27;20098;-52
2021/12/21 10:58:08;;;;;;;16.08;5.15;;;;;;;-0.35;77.88;101767.94;5104381;27;20150;-54
2021/12/21 11:00:39;;;;;;;12.13;4.75;;;;;;;-0.38;77.67;101772.00;5111813;27;20372;-58
2021/12/21 11:03:06;;;;;;;9.02;4.63;;;;;;;-0.39;77.80;101767.72;5107528;27;20430;-53
2021/12/21 11:05:34;;;;;;;16.55;4.68;;;;;;;-0.43;78.28;101761.59;5098662;27;20087;-54
2021/12/21 11:08:06;;;;;;;13.70;4.70;;;;;;;-0.45;77.98;101758.09;5104561;27;20047;-60
2021/12/21 11:10:35;;;;;;;7.93;4.25;;;;;;;-0.45;78.55;101757.22;5109169;27;20040;-50
2021/12/21 11:13:07;;;;;;;11.50;4.63;;;;;;;-0.48;78.77;101757.03;5118931;27;20109;-57
2021/12/21 11:15:37;;;;;;;10.35;4.38;;;;;;;-0.48;78.75;101746.84;5112970;27;20070;-55
2021/12/21 11:18:07;;;;;;;7.97;3.33;;;;;;;-0.51;79.17;101747.56;5114822;27;20048;-55
2021/12/21 11:20:37;;;;;;;7.68;3.13;;;;;;;-0.52;79.42;101750.00;5117118;27;20043;-56
2021/12/21 11:23:05;;;;;;;12.45;3.47;;;;;;;-0.53;78.76;101743.16;5113980;27;20047;-54
2021/12/21 11:25:34;;;;;;;8.60;3.63;;;;;;;-0.60;79.29;101741.09;5114213;27;20052;-52
2021/12/21 11:28:03;;;;;;;7.32;3.10;;;;;;;-0.63;79.39;101737.59;5117123;27;20055;-52
2021/12/21 11:30:35;;;;;;;8.25;2.70;;;;;;;-0.64;78.91;101738.38;5113598;27;20043;-52
2021/12/21 11:33:07;;;;;;;10.75;3.53;;;;;;;-0.59;79.59;101738.63;5118246;27;20490;-51
2021/12/21 11:38:20;;;;;;;16.38;3.70;;;;;;;-0.50;79.09;101748.44;5111429;27;20166;-58
2021/12/21 11:40:47;;;;;;;18.75;4.45;;;;;;;-0.46;78.89;101750.38;5112481;27;20101;-59
2021/12/21 11:43:23;;;;;;;10.60;3.15;;;;;;;-0.43;78.80;101753.06;5108655;27;20039;-57
2021/12/21 11:45:57;;;;;;;13.90;3.60;;;;;;;-0.41;78.41;101751.47;5104073;27;20496;-59
2021/12/21 11:48:45;;;;;;;14.07;3.53;;;;;;;-0.38;78.36;101759.28;5106157;27;20056;-59
2021/12/21 11:51:13;;;;;;;11.05;3.55;;;;;;;-0.36;78.78;101750.03;5114569;27;20122;-58
2021/12/21 11:53:41;;;;;;;10.32;3.70;;;;;;;-0.39;78.83;101747.34;5135016;27;20047;-58
2021/12/21 11:56:17;;;;;;;9.55;3.42;;;;;;;-0.42;79.17;101753.16;5133293;27;20107;-59
2021/12/21 11:58:44;;;;;;;8.23;3.63;;;;;;;-0.48;78.76;101742.63;5129878;27;20050;-57
2021/12/21 12:01:19;;;;;;;11.35;3.53;;;;;;;-0.52;78.53;101744.91;5135497;27;20051;-58
2021/12/21 12:03:56;;;;;;;12.67;3.87;;;;;;;-0.56;79.52;101753.19;5135004;27;20065;-60
2021/12/21 12:06:24;;;;;;;10.05;3.33;;;;;;;-0.65;79.13;101749.38;5135494;27;20284;-58
2021/12/21 12:08:56;;;;;;;26.52;4.68;;;;;;;-0.73;79.16;101755.72;5128751;27;20069;-59
2021/12/21 12:11:25;;;;;;;34.97;6.78;;;;;;;-0.81;79.90;101751.91;5126093;27;20790;-58
2021/12/21 12:14:04;;;;;;;20.15;5.10;;;;;;;-0.83;79.85;101752.63;5137922;27;20049;-59